Time;durP1;ratioP1;P1;durP2;ratioP2;P2;SDS_P1;SDS_P2;PMS_P1;PMS_P2;Temp;Humidity;BMP_temperature;BMP_pressure;BME280_temperature;BME280_humidity;BME280_pressure;Samples;Min_cycle;Max_cycle;Signal;HPM_P1;HPM_P2
2023/07/01 00:04:35;;;;;;;7.00;2.80;;;;;;;22.51;55.30;98287.17;223582;181;136656;-68
2023/07/01 00:09:39;;;;;;;6.40;2.60;;;;;;;22.46;55.41;98283.98;223578;182;145026;-68
2023/07/01 00:14:42;;;;;;;3.90;2.60;;;;;;;22.41;55.81;98284.96;223526;181;138941;-67
2023/07/01 00:19:45;;;;;;;4.10;2.60;;;;;;;22.32;55.95;98291.67;223608;181;136595;-68
2023/07/01 00:24:49;;;;;;;5.90;2.50;;;;;;;22.29;56.35;98292.64;223642;181;145722;-69
2023/07/01 00:29:52;;;;;;;2.90;2.40;;;;;;;22.24;56.90;98292.31;223671;181;140087;-67
2023/07/01 00:34:55;;;;;;;3.90;2.50;;;;;;;22.19;56.99;98291.59;223719;181;137375;-68
2023/07/01 00:39:59;;;;;;;5.20;3.10;;;;;;;22.15;57.25;98293.46;223540;181;145233;-67
2023/07/01 00:45:03;;;;;;;4.00;2.60;;;;;;;22.12;57.49;98291.51;223476;181;139828;-68
2023/07/01 00:50:11;;;;;;;3.10;2.80;;;;;;;22.07;57.75;98286.24;223650;181;136382;-68
2023/07/01 00:55:14;;;;;;;3.80;2.50;;;;;;;22.03;58.13;98276.58;223604;182;145294;-67
2023/07/01 01:00:19;;;;;;;4.90;3.40;;;;;;;21.96;58.34;98270.66;223570;214;138701;-67
2023/07/01 01:05:38;;;;;;;4.10;2.70;;;;;;;21.91;58.75;98273.79;223608;181;137312;-68
2023/07/01 01:10:46;;;;;;;4.00;3.00;;;;;;;21.86;58.91;98266.75;223530;181;146609;-67
2023/07/01 01:15:51;;;;;;;6.30;3.10;;;;;;;21.81;59.33;98263.30;223428;214;138491;-67
2023/07/01 01:20:58;;;;;;;2.90;2.50;;;;;;;21.77;59.60;98261.82;223533;181;140172;-65
2023/07/01 01:26:05;;;;;;;4.60;2.70;;;;;;;21.73;59.93;98252.98;223530;182;147008;-70
2023/07/01 01:31:11;;;;;;;3.90;2.80;;;;;;;21.68;59.98;98244.83;223511;181;139269;-71
2023/07/01 01:36:29;;;;;;;3.90;2.70;;;;;;;21.64;60.35;98241.95;223679;181;136771;-71
2023/07/01 01:41:35;;;;;;;2.90;2.60;;;;;;;21.60;60.58;98235.70;223657;181;145556;-73
2023/07/01 01:46:40;;;;;;;3.30;2.90;;;;;;;21.58;60.66;98230.17;223673;181;139660;-68
2023/07/01 01:51:43;;;;;;;4.40;3.60;;;;;;;21.56;60.83;98227.73;223586;181;136497;-70
2023/07/01 01:56:47;;;;;;;3.70;2.70;;;;;;;21.53;61.14;98228.84;223509;181;145733;-72
2023/07/01 02:01:52;;;;;;;4.30;2.90;;;;;;;21.51;61.84;98231.27;223659;181;141863;-69
2023/07/01 02:06:55;;;;;;;4.30;2.80;;;;;;;21.51;62.81;98221.81;223847;181;137094;-69
2023/07/01 02:11:58;;;;;;;4.40;2.70;;;;;;;21.49;63.26;98217.66;223708;181;145362;-69
2023/07/01 02:17:02;;;;;;;5.70;3.10;;;;;;;21.50;63.63;98225.33;223664;181;139692;-71
2023/07/01 02:22:05;;;;;;;4.20;3.10;;;;;;;21.43;63.80;98234.98;223623;181;136563;-69
2023/07/01 02:27:09;;;;;;;6.50;3.10;;;;;;;21.38;64.79;98234.39;223720;181;145104;-72
2023/07/01 02:32:12;;;;;;;4.30;2.80;;;;;;;21.35;64.84;98234.56;223729;181;139611;-70
2023/07/01 02:37:16;;;;;;;3.70;3.10;;;;;;;21.32;64.85;98231.11;223767;182;136679;-71
2023/07/01 02:42:19;;;;;;;5.60;2.90;;;;;;;21.24;65.47;98234.95;223803;182;145337;-67
2023/07/01 02:47:23;;;;;;;3.60;3.10;;;;;;;21.16;65.91;98240.41;223679;182;138553;-78
2023/07/01 02:52:26;;;;;;;4.10;3.00;;;;;;;21.13;66.22;98240.41;223547;182;137069;-72
2023/07/01 02:57:30;;;;;;;4.70;3.10;;;;;;;21.13;66.95;98237.87;223655;182;145520;-69
2023/07/01 03:02:33;;;;;;;4.60;3.50;;;;;;;21.12;67.63;98233.48;223632;181;138447;-68
2023/07/01 03:07:36;;;;;;;4.10;3.10;;;;;;;21.11;67.95;98230.08;223699;181;137804;-70
2023/07/01 03:12:40;;;;;;;4.10;3.40;;;;;;;21.08;68.64;98226.20;223776;182;145614;-67
2023/07/01 03:17:43;;;;;;;5.20;3.40;;;;;;;21.07;68.97;98233.97;223689;181;138963;-67
2023/07/01 03:22:46;;;;;;;4.40;3.00;;;;;;;21.06;69.49;98240.70;223681;181;136852;-67
2023/07/01 03:27:49;;;;;;;4.00;3.30;;;;;;;21.09;69.66;98242.90;223612;181;145123;-66
2023/07/01 03:32:53;;;;;;;5.00;3.60;;;;;;;21.10;69.34;98243.68;223691;181;138609;-72
2023/07/01 03:37:56;;;;;;;7.20;3.50;;;;;;;21.10;69.13;98236.65;223721;181;136718;-67
2023/07/01 03:42:59;;;;;;;5.20;3.20;;;;;;;21.07;69.02;98236.60;223746;181;145112;-68
2023/07/01 03:48:03;;;;;;;6.20;4.00;;;;;;;20.98;68.95;98248.47;223629;181;141445;-67
2023/07/01 03:53:10;;;;;;;5.10;3.30;;;;;;;20.85;69.49;98251.08;223692;182;139342;-68
2023/07/01 03:58:21;;;;;;;6.70;3.10;;;;;;;20.78;70.61;98250.17;223805;181;145292;-67
2023/07/01 04:03:25;;;;;;;5.70;3.40;;;;;;;20.84;70.78;98248.30;223862;181;138032;-67
2023/07/01 04:08:28;;;;;;;4.40;3.50;;;;;;;20.81;70.87;98244.70;223720;181;137160;-67
2023/07/01 04:13:32;;;;;;;5.60;3.60;;;;;;;20.79;70.78;98249.28;223752;181;144560;-67
2023/07/01 04:18:35;;;;;;;4.60;3.40;;;;;;;20.69;70.81;98233.70;223652;181;138095;-67
2023/07/01 04:23:39;;;;;;;5.20;3.70;;;;;;;20.60;71.14;98234.41;223765;181;137735;-68
2023/07/01 04:28:42;;;;;;;5.40;3.70;;;;;;;20.52;71.70;98238.84;223729;181;146129;-69
2023/07/01 04:33:45;;;;;;;5.30;3.40;;;;;;;20.50;71.81;98249.58;223645;181;138590;-70
2023/07/01 04:38:48;;;;;;;6.40;3.90;;;;;;;20.55;71.66;98242.34;223682;181;136701;-70
2023/07/01 04:43:51;;;;;;;6.20;4.00;;;;;;;20.56;71.95;98233.26;223722;180;145246;-66
2023/07/01 04:48:55;;;;;;;6.60;4.10;;;;;;;20.53;72.05;98242.73;223816;181;138400;-68
2023/07/01 04:54:00;;;;;;;5.30;3.60;;;;;;;20.46;72.08;98240.64;223685;181;137835;-72
2023/07/01 04:59:04;;;;;;;6.50;3.50;;;;;;;20.41;72.35;98245.53;223682;181;145788;-72
2023/07/01 05:04:08;;;;;;;185.30;154.20;;;;;;;20.43;72.70;98258.13;223521;181;138912;-69
2023/07/01 05:09:11;;;;;;;5.30;4.60;;;;;;;20.46;72.63;98258.14;223641;181;138668;-68
2023/07/01 05:14:15;;;;;;;92.00;71.00;;;;;;;20.47;72.87;98247.53;223651;181;145205;-69
2023/07/01 05:19:28;;;;;;;6.60;4.50;;;;;;;20.52;72.81;98255.85;223688;182;138446;-69
2023/07/01 05:24:31;;;;;;;4.80;3.70;;;;;;;20.49;72.38;98270.97;223673;181;137120;-70
2023/07/01 05:29:35;;;;;;;5.60;4.00;;;;;;;20.42;72.62;98279.88;223703;181;145601;-70
2023/07/01 05:34:38;;;;;;;5.50;4.40;;;;;;;20.41;73.02;98273.20;223723;181;138195;-67
2023/07/01 05:39:41;;;;;;;4.30;3.70;;;;;;;20.44;72.71;98279.23;223690;181;137275;-68
2023/07/01 05:44:45;;;;;;;4.20;3.40;;;;;;;20.46;72.86;98281.16;223655;181;145012;-66
2023/07/01 05:49:48;;;;;;;4.50;3.20;;;;;;;20.42;73.06;98275.77;223653;181;138475;-69
2023/07/01 05:54:51;;;;;;;5.50;3.70;;;;;;;20.35;73.28;98279.25;223695;181;140483;-74
2023/07/01 05:59:54;;;;;;;4.40;3.20;;;;;;;20.31;73.43;98280.21;223648;181;145624;-74
2023/07/01 06:04:58;;;;;;;13.00;11.30;;;;;;;20.27;73.51;98281.23;223717;181;139297;-74
2023/07/01 06:10:01;;;;;;;31.30;26.70;;;;;;;20.30;73.82;98277.44;223485;180;138433;-75
2023/07/01 06:15:05;;;;;;;6.30;3.30;;;;;;;20.34;73.77;98279.35;223492;181;145176;-73
2023/07/01 06:20:09;;;;;;;182.00;146.60;;;;;;;20.42;74.04;98278.23;223748;181;140956;-77
2023/07/01 06:25:13;;;;;;;5.80;5.20;;;;;;;20.45;73.96;98290.02;223816;182;137961;-76
2023/07/01 06:30:17;;;;;;;4.50;3.60;;;;;;;20.37;73.71;98297.34;223695;181;145241;-70
2023/07/01 06:35:21;;;;;;;3.90;2.80;;;;;;;20.39;74.37;98296.96;223683;181;140255;-71
2023/07/01 06:40:24;;;;;;;5.20;3.30;;;;;;;20.46;74.04;98292.61;223701;181;137494;-67
2023/07/01 06:45:27;;;;;;;3.80;3.40;;;;;;;20.48;74.18;98293.83;223666;181;147715;-69
2023/07/01 06:50:30;;;;;;;4.30;3.50;;;;;;;20.48;74.03;98289.23;223652;181;138864;-68
2023/07/01 06:55:34;;;;;;;3.80;3.10;;;;;;;20.53;74.27;98290.29;223706;181;136914;-70
2023/07/01 07:00:37;;;;;;;286.80;237.30;;;;;;;20.62;74.30;98290.94;223713;181;147063;-70
2023/07/01 07:05:40;;;;;;;13.90;12.20;;;;;;;20.63;74.28;98292.42;223620;181;139259;-69
2023/07/01 07:10:43;;;;;;;5.20;2.80;;;;;;;20.63;73.90;98290.63;223828;181;137562;-69
2023/07/01 07:15:47;;;;;;;4.60;3.20;;;;;;;20.61;73.57;98299.75;223628;181;146992;-69
2023/07/01 07:20:51;;;;;;;19.10;17.10;;;;;;;20.56;73.62;98294.69;223603;181;138687;-69
2023/07/01 07:25:54;;;;;;;4.80;3.30;;;;;;;20.57;73.95;98286.66;223686;181;137388;-71
2023/07/01 07:30:57;;;;;;;4.50;2.90;;;;;;;20.56;74.26;98286.81;223690;181;147617;-69
2023/07/01 07:36:22;;;;;;;4.10;3.00;;;;;;;20.63;74.26;98287.45;221807;193;676980;-67
2023/07/01 07:41:32;;;;;;;4.40;3.30;;;;;;;20.66;73.68;98289.56;223516;184;136663;-70
2023/07/01 07:46:55;;;;;;;4.80;3.20;;;;;;;20.66;73.67;98284.49;223405;183;143437;-71
2023/07/01 07:52:00;;;;;;;4.90;2.80;;;;;;;20.64;73.52;98276.33;223566;184;139185;-72
2023/07/01 07:57:04;;;;;;;4.90;3.70;;;;;;;20.62;74.23;98277.48;223455;184;136953;-70
2023/07/01 08:02:08;;;;;;;4.80;4.30;;;;;;;20.63;74.34;98277.34;223468;184;143492;-70
2023/07/01 08:07:12;;;;;;;9.10;5.70;;;;;;;20.68;74.34;98277.11;223632;184;139391;-70
2023/07/01 08:12:15;;;;;;;7.70;6.00;;;;;;;20.71;74.44;98279.05;223430;185;137692;-71
2023/07/01 08:17:18;;;;;;;53.20;45.20;;;;;;;20.74;74.59;98278.55;223666;182;143732;-73
2023/07/01 08:22:21;;;;;;;5.70;5.10;;;;;;;20.75;74.42;98282.63;223636;182;138858;-70
2023/07/01 08:27:24;;;;;;;8.00;5.40;;;;;;;20.78;73.93;98284.69;223671;182;137408;-73
2023/07/01 08:32:28;;;;;;;7.60;6.60;;;;;;;20.84;74.03;98282.39;223549;181;146795;-70
2023/07/01 08:37:32;;;;;;;13.80;9.80;;;;;;;20.89;73.68;98278.30;223690;182;138265;-66
2023/07/01 08:43:00;;;;;;;7.60;6.80;;;;;;;20.83;73.75;98276.43;223653;182;137318;-68
2023/07/01 08:48:06;;;;;;;10.00;8.60;;;;;;;20.84;73.94;98271.85;223598;182;147014;-66
2023/07/01 08:53:10;;;;;;;9.30;6.90;;;;;;;20.83;74.07;98269.41;223695;182;139290;-68
2023/07/01 08:58:14;;;;;;;8.60;6.20;;;;;;;20.79;74.20;98264.97;223713;182;138381;-66
2023/07/01 09:03:18;;;;;;;145.40;109.40;;;;;;;20.86;74.49;98264.15;223598;181;146041;-67
2023/07/01 09:08:21;;;;;;;12.60;7.50;;;;;;;20.96;73.84;98256.23;223800;182;138843;-70
2023/07/01 09:13:26;;;;;;;6.20;5.10;;;;;;;21.04;73.95;98253.98;223684;182;136062;-66
2023/07/01 09:18:30;;;;;;;6.90;4.60;;;;;;;21.13;73.31;98257.39;223616;182;145138;-65
2023/07/01 09:23:37;;;;;;;6.60;4.70;;;;;;;21.09;72.62;98254.03;223555;183;138840;-66
2023/07/01 09:28:44;;;;;;;6.00;4.90;;;;;;;21.08;72.99;98252.81;223741;182;136854;-70
2023/07/01 09:34:09;;;;;;;5.80;5.00;;;;;;;21.05;73.36;98253.45;223619;182;145877;-67
2023/07/01 09:39:12;;;;;;;5.70;5.10;;;;;;;21.12;73.93;98255.90;223724;182;138307;-68
2023/07/01 09:44:18;;;;;;;7.50;5.60;;;;;;;21.17;73.62;98258.33;223624;182;137909;-70
2023/07/01 09:49:36;;;;;;;6.20;5.60;;;;;;;21.16;73.82;98252.39;223652;182;145811;-71
2023/07/01 09:54:42;;;;;;;7.00;6.20;;;;;;;21.23;74.20;98247.86;223625;182;139856;-65
2023/07/01 09:59:45;;;;;;;8.70;7.90;;;;;;;21.38;74.42;98244.84;223684;182;136985;-62
2023/07/01 10:04:51;;;;;;;8.60;7.80;;;;;;;21.50;73.31;98239.63;223598;183;146224;-64
2023/07/01 10:09:54;;;;;;;7.80;7.10;;;;;;;21.46;73.08;98227.98;223564;181;139585;-61
2023/07/01 10:14:58;;;;;;;28.90;24.50;;;;;;;21.48;73.53;98216.39;223728;182;136561;-62
2023/07/01 10:20:25;;;;;;;6.90;5.60;;;;;;;21.63;73.75;98216.55;223458;182;146564;-62
2023/07/01 10:25:30;;;;;;;7.60;6.10;;;;;;;21.89;73.51;98203.83;223529;183;139440;-64
2023/07/01 10:30:57;;;;;;;8.50;6.30;;;;;;;22.14;72.74;98196.23;223662;182;137223;-63
2023/07/01 10:36:01;;;;;;;7.70;6.40;;;;;;;22.28;72.23;98198.01;223557;183;284852;-63
2023/07/01 10:41:05;;;;;;;7.40;6.70;;;;;;;22.35;71.57;98199.21;223592;182;138055;-64
2023/07/01 10:46:10;;;;;;;24.40;19.80;;;;;;;22.38;70.81;98199.80;223604;182;136720;-64
2023/07/01 10:51:14;;;;;;;6.20;5.40;;;;;;;22.40;70.40;98201.19;223607;182;145542;-64
2023/07/01 10:56:17;;;;;;;268.80;229.50;;;;;;;22.53;70.97;98189.85;223616;182;138761;-64
2023/07/01 11:01:59;;;;;;;16.20;14.50;;;;;;;22.77;70.98;98185.16;223524;183;137849;-64
2023/07/01 11:07:02;;;;;;;9.20;8.30;;;;;;;22.96;70.36;98188.05;223560;182;145827;-70
2023/07/01 11:13:17;;;;;;;7.70;6.90;;;;;;;23.09;69.94;98179.35;220790;193;665553;-66
2023/07/01 11:18:20;;;;;;;278.70;215.70;;;;;;;23.13;70.06;98175.71;223267;184;135751;-66
2023/07/01 11:23:24;;;;;;;13.90;12.50;;;;;;;23.19;69.87;98169.73;223550;183;144145;-68
2023/07/01 11:28:33;;;;;;;8.60;7.30;;;;;;;23.26;68.91;98164.20;223660;182;138433;-67
2023/07/01 11:33:43;;;;;;;9.70;7.50;;;;;;;23.40;68.28;98156.15;223643;182;137255;-66
2023/07/01 11:38:48;;;;;;;378.70;339.20;;;;;;;23.49;68.12;98153.75;223693;182;143462;-67
2023/07/01 11:43:52;;;;;;;10.20;9.20;;;;;;;23.58;67.73;98149.25;223737;182;139908;-67
2023/07/01 11:48:56;;;;;;;7.50;5.80;;;;;;;23.74;66.52;98143.75;223834;183;137285;-66
2023/07/01 11:54:00;;;;;;;7.70;5.90;;;;;;;24.02;65.41;98142.25;223575;182;143350;-69
2023/07/01 11:59:03;;;;;;;6.80;6.00;;;;;;;24.40;64.41;98134.83;223545;182;139775;-65
2023/07/01 12:04:15;;;;;;;235.70;189.10;;;;;;;24.66;63.80;98133.50;223611;182;137105;-67
2023/07/01 12:09:37;;;;;;;10.30;8.40;;;;;;;24.71;63.09;98134.25;223741;182;144940;-65
2023/07/01 12:14:41;;;;;;;8.60;7.10;;;;;;;24.69;61.78;98133.05;223583;182;140940;-67
2023/07/01 12:19:45;;;;;;;6.50;5.90;;;;;;;24.70;62.40;98133.09;223397;182;137118;-64
2023/07/01 12:24:55;;;;;;;7.10;5.40;;;;;;;24.81;61.52;98129.70;223541;181;145967;-65
2023/07/01 12:30:09;;;;;;;6.30;4.50;;;;;;;24.94;60.82;98120.37;223626;182;138010;-64
2023/07/01 12:35:17;;;;;;;6.00;5.40;;;;;;;24.87;59.92;98116.93;223628;181;136457;-64
2023/07/01 12:40:20;;;;;;;7.50;6.00;;;;;;;24.75;59.40;98113.16;223597;181;145375;-65
2023/07/01 12:45:24;;;;;;;19.00;17.20;;;;;;;24.84;60.07;98104.70;223490;181;138901;-64
2023/07/01 12:50:28;;;;;;;7.50;6.80;;;;;;;25.04;59.89;98095.70;223629;181;137085;-65
2023/07/01 12:55:31;;;;;;;33.20;29.70;;;;;;;25.28;59.68;98086.38;223639;182;145342;-66
2023/07/01 13:00:34;;;;;;;16.10;12.30;;;;;;;25.77;60.13;98077.94;223589;181;138523;-63
2023/07/01 13:05:37;;;;;;;6.50;5.40;;;;;;;26.28;59.10;98075.60;223655;181;139864;-65
2023/07/01 13:16:32;;;;;;;5.50;5.00;;;;;;;27.01;55.40;98067.16;221786;193;674125;-64
2023/07/01 13:21:47;;;;;;;5.40;4.90;;;;;;;27.26;55.08;98058.06;223442;184;138131;-65
2023/07/01 13:26:52;;;;;;;;;;;;;;;27.53;52.83;98052.14;223440;184;143225;-64
2023/07/01 13:32:03;;;;;;;49.60;44.60;;;;;;;27.41;52.12;98053.29;223567;183;138571;-64
2023/07/01 13:37:17;;;;;;;13.60;11.80;;;;;;;27.36;52.00;98051.75;223553;184;139646;-64
2023/07/01 13:42:25;;;;;;;6.00;5.20;;;;;;;27.26;52.01;98052.69;223572;183;145421;-64
2023/07/01 13:47:47;;;;;;;9.10;6.90;;;;;;;27.02;51.30;98046.48;223568;182;138286;-65
2023/07/01 13:52:54;;;;;;;11.70;10.50;;;;;;;27.01;52.02;98040.11;223547;181;137230;-65
2023/07/01 13:58:08;;;;;;;7.70;6.90;;;;;;;27.21;50.96;98030.21;223511;182;143950;-63
2023/07/01 14:03:27;;;;;;;7.00;6.10;;;;;;;27.51;50.92;98022.80;223358;181;138276;-64
2023/07/01 14:08:34;;;;;;;8.40;5.80;;;;;;;27.69;50.07;98027.04;223359;183;136489;-63
2023/07/01 14:13:37;;;;;;;8.10;6.10;;;;;;;27.72;50.64;98021.70;223557;183;145295;-65
2023/07/01 14:18:43;;;;;;;7.00;5.90;;;;;;;27.69;50.66;98020.86;223443;215;138436;-63
2023/07/01 14:23:54;;;;;;;8.30;6.60;;;;;;;27.67;51.84;98014.95;223499;183;137090;-63
2023/07/01 14:29:03;;;;;;;6.00;5.40;;;;;;;27.78;50.62;98008.11;223463;182;145872;-64
2023/07/01 14:34:08;;;;;;;6.60;5.90;;;;;;;27.76;49.49;97994.91;223364;182;147751;-63
2023/07/01 14:39:35;;;;;;;7.10;6.40;;;;;;;27.70;49.67;97997.21;223455;182;136443;-64
2023/07/01 14:44:38;;;;;;;13.70;6.90;;;;;;;27.61;49.66;97993.59;223460;182;145208;-65
2023/07/01 14:49:41;;;;;;;7.80;6.30;;;;;;;27.48;49.52;97986.79;223556;182;138596;-65
2023/07/01 14:54:45;;;;;;;8.30;7.30;;;;;;;27.27;50.18;97978.25;223480;182;136588;-65
2023/07/01 14:59:48;;;;;;;7.60;6.50;;;;;;;27.06;50.05;97978.66;223419;182;145329;-65
2023/07/01 15:04:51;;;;;;;7.90;6.80;;;;;;;26.88;50.42;97986.12;223463;182;138656;-65
2023/07/01 15:13:14;;;;;;;8.70;7.20;;;;;;;26.71;51.03;97975.41;221792;192;666127;-64
2023/07/01 15:18:18;;;;;;;7.20;6.50;;;;;;;26.62;51.65;97975.70;223020;187;136291;-65
2023/07/01 15:23:21;;;;;;;7.30;6.20;;;;;;;26.50;51.91;97973.41;223475;183;143249;-64
2023/07/01 15:28:24;;;;;;;7.90;7.10;;;;;;;26.24;52.09;97971.59;223349;184;138383;-64
2023/07/01 15:33:28;;;;;;;8.90;8.00;;;;;;;26.19;51.99;97974.70;223418;183;137310;-64
2023/07/01 15:38:31;;;;;;;9.10;8.20;;;;;;;26.08;52.62;97974.10;223471;211;144095;-64
2023/07/01 15:43:34;;;;;;;7.80;7.00;;;;;;;25.99;53.32;97973.04;223495;215;138414;-65
2023/07/01 15:48:37;;;;;;;8.40;6.80;;;;;;;25.86;54.35;97975.91;223554;181;137080;-64
2023/07/01 15:53:40;;;;;;;8.40;7.10;;;;;;;25.73;54.73;97977.56;223562;181;143491;-64
2023/07/01 15:58:44;;;;;;;10.60;7.30;;;;;;;25.65;55.31;97973.63;223552;182;138599;-63
2023/07/01 16:03:50;;;;;;;7.40;6.70;;;;;;;25.62;55.92;97974.95;223526;181;137472;-63
2023/07/01 16:08:53;;;;;;;9.80;6.40;;;;;;;25.63;56.70;97976.27;223566;186;146291;-64
2023/07/01 16:14:04;;;;;;;8.80;6.90;;;;;;;25.61;57.58;97971.73;223569;214;138151;-64
2023/07/01 16:19:12;;;;;;;9.20;7.30;;;;;;;25.50;57.60;97973.45;223563;181;137099;-64
2023/07/01 16:24:35;;;;;;;8.20;6.60;;;;;;;25.41;58.03;97978.27;223468;182;145540;-64
2023/07/01 16:29:38;;;;;;;6.80;5.80;;;;;;;25.33;58.70;97976.96;223556;182;138977;-64
2023/07/01 16:34:42;;;;;;;7.90;5.80;;;;;;;25.30;59.04;97974.34;223444;215;137447;-64
2023/07/01 16:39:53;;;;;;;8.60;5.30;;;;;;;25.24;59.04;97979.42;223510;182;145125;-66
2023/07/01 16:44:56;;;;;;;8.30;5.90;;;;;;;25.16;59.24;97980.50;223398;182;138395;-65
2023/07/01 16:49:59;;;;;;;7.60;5.80;;;;;;;25.08;59.65;97979.67;223607;214;138800;-64
2023/07/01 16:55:03;;;;;;;7.70;5.40;;;;;;;24.98;60.31;97974.20;223552;182;145356;-63
2023/07/01 17:00:07;;;;;;;7.80;5.10;;;;;;;24.90;60.67;97968.40;223638;181;138345;-64
2023/07/01 17:05:12;;;;;;;5.90;5.30;;;;;;;24.89;60.66;97963.45;223470;181;137562;-63
2023/07/01 17:10:37;;;;;;;6.70;4.90;;;;;;;24.88;60.78;97965.34;223494;182;146492;-64
2023/07/01 17:15:40;;;;;;;6.70;5.00;;;;;;;24.88;60.45;97961.02;223555;181;138737;-63
2023/07/01 17:20:44;;;;;;;6.70;4.90;;;;;;;24.85;60.29;97960.04;223525;182;137810;-63
2023/07/01 17:25:49;;;;;;;7.50;5.30;;;;;;;24.80;60.35;97952.00;223763;214;145647;-63
2023/07/01 17:30:52;;;;;;;5.80;4.80;;;;;;;24.71;60.81;97952.33;223569;182;138431;-59
2023/07/01 17:35:56;;;;;;;5.90;5.30;;;;;;;24.67;60.72;97945.20;223602;182;137110;-63
2023/07/01 17:40:59;;;;;;;7.40;4.90;;;;;;;24.63;60.94;97942.80;223565;182;145714;-64
2023/07/01 17:46:03;;;;;;;7.10;4.80;;;;;;;24.57;60.86;97944.59;223531;181;141509;-62
2023/07/01 17:51:06;;;;;;;6.00;4.60;;;;;;;24.52;61.06;97945.65;223714;182;136458;-63
2023/07/01 17:56:09;;;;;;;6.10;4.80;;;;;;;24.49;61.31;97945.69;223510;192;146019;-64
2023/07/01 18:01:15;;;;;;;6.30;5.20;;;;;;;24.47;61.47;97947.17;223500;182;138385;-63
2023/07/01 18:06:19;;;;;;;8.60;5.00;;;;;;;24.44;61.43;97946.02;223488;182;139251;-63
2023/07/01 18:11:27;;;;;;;6.40;5.30;;;;;;;24.47;61.56;97952.95;223522;182;145217;-62
2023/07/01 18:16:30;;;;;;;7.10;5.10;;;;;;;24.47;61.72;97959.64;223454;181;139536;-63
2023/07/01 18:21:34;;;;;;;7.40;5.50;;;;;;;24.47;61.86;97959.05;223511;181;137656;-65
2023/07/01 18:26:39;;;;;;;7.50;5.70;;;;;;;24.43;62.16;97958.26;223632;182;145979;-63
2023/07/01 18:31:44;;;;;;;7.80;5.80;;;;;;;24.38;62.23;97957.81;223591;186;139989;-63
2023/07/01 18:36:47;;;;;;;7.20;6.30;;;;;;;24.29;62.39;97951.86;223518;182;136890;-62
2023/07/01 18:41:50;;;;;;;8.10;6.20;;;;;;;24.21;62.61;97953.13;223543;214;145356;-64
2023/07/01 18:46:53;;;;;;;9.60;5.90;;;;;;;24.15;62.87;97951.33;223562;182;139473;-63
2023/07/01 18:51:56;;;;;;;9.20;6.20;;;;;;;24.11;63.08;97955.42;223479;182;138316;-64
2023/07/01 18:57:02;;;;;;;10.00;6.80;;;;;;;24.10;63.26;97956.46;223505;181;145651;-67
2023/07/01 19:02:06;;;;;;;7.90;6.70;;;;;;;24.08;63.15;97967.64;223590;188;138666;-65
2023/07/01 19:07:13;;;;;;;9.60;7.50;;;;;;;24.02;63.36;97968.83;223497;183;136429;-65
2023/07/01 19:12:20;;;;;;;9.30;7.20;;;;;;;23.93;63.60;97970.20;223483;182;145319;-64
2023/07/01 19:17:23;;;;;;;8.70;6.90;;;;;;;23.82;64.05;97979.26;223504;182;138664;-65
2023/07/01 19:22:29;;;;;;;10.30;7.50;;;;;;;23.65;64.96;97981.51;223491;182;136621;-66
2023/07/01 19:27:35;;;;;;;9.30;7.20;;;;;;;23.50;65.50;97987.66;223522;181;145279;-64
2023/07/01 19:32:39;;;;;;;11.10;7.50;;;;;;;23.37;65.91;97996.34;223528;182;138704;-65
2023/07/01 19:37:42;;;;;;;10.90;7.30;;;;;;;23.31;65.94;97995.40;223579;192;137851;-66
2023/07/01 19:42:45;;;;;;;11.40;7.70;;;;;;;23.34;65.82;97988.48;223589;207;145589;-64
2023/07/01 19:47:49;;;;;;;11.20;8.40;;;;;;;23.38;65.63;97987.63;223607;181;138255;-65
2023/07/01 19:52:52;;;;;;;11.10;8.90;;;;;;;23.43;65.17;97988.77;223545;181;137569;-66
2023/07/01 19:57:55;;;;;;;10.00;8.40;;;;;;;23.47;64.83;97982.72;223604;203;145476;-65
2023/07/01 20:02:58;;;;;;;12.30;9.20;;;;;;;23.45;64.54;97986.80;223444;182;138356;-65
2023/07/01 20:13:15;;;;;;;11.60;9.40;;;;;;;23.25;64.85;97985.42;221866;223;664434;-66
2023/07/01 20:18:18;;;;;;;11.80;9.40;;;;;;;23.15;65.19;97984.38;223329;184;136488;-64
2023/07/01 20:23:21;;;;;;;12.30;9.10;;;;;;;23.13;65.30;97988.80;223468;182;143494;-64
2023/07/01 20:28:24;;;;;;;12.10;9.80;;;;;;;23.10;65.55;97986.95;223508;183;138235;-63
2023/07/01 20:33:29;;;;;;;13.20;9.70;;;;;;;23.12;65.64;97988.21;223488;182;138608;-64
2023/07/01 20:38:33;;;;;;;11.50;9.20;;;;;;;23.05;65.94;97991.21;223698;193;143812;-63
2023/07/01 20:43:37;;;;;;;14.70;9.60;;;;;;;22.90;66.47;97993.40;223464;182;138393;-63
2023/07/01 20:48:40;;;;;;;16.80;10.30;;;;;;;22.78;66.91;97989.60;223566;182;136978;-63
2023/07/01 20:53:43;;;;;;;12.60;8.90;;;;;;;22.62;67.49;97996.14;223490;182;143498;-65
2023/07/01 20:58:47;;;;;;;15.30;9.20;;;;;;;22.50;67.84;97997.42;223442;182;138620;-64
2023/07/01 21:03:50;;;;;;;12.00;9.40;;;;;;;22.42;68.35;97993.65;223467;182;137578;-64
2023/07/01 21:08:55;;;;;;;14.60;9.80;;;;;;;22.34;68.61;97986.96;223863;181;145210;-63
2023/07/01 21:13:58;;;;;;;13.60;9.50;;;;;;;22.30;68.81;97984.38;223803;182;139717;-64
2023/07/01 21:19:03;;;;;;;15.10;10.40;;;;;;;22.21;69.21;97981.66;223713;181;136998;-64
2023/07/01 21:24:06;;;;;;;13.00;10.10;;;;;;;22.10;69.66;97980.08;223633;208;145228;-64
2023/07/01 21:29:15;;;;;;;14.70;9.60;;;;;;;21.99;69.96;97978.48;223600;182;138351;-66
2023/07/01 21:34:20;;;;;;;15.50;10.40;;;;;;;21.93;70.49;97985.00;223489;181;137470;-62
2023/07/01 21:39:23;;;;;;;20.20;10.80;;;;;;;21.92;70.83;97984.20;223720;181;145873;-64
2023/07/01 21:44:27;;;;;;;17.80;12.00;;;;;;;21.96;70.88;97988.78;223566;214;138954;-64
2023/07/01 21:49:30;;;;;;;16.10;12.20;;;;;;;22.04;71.01;97993.20;223525;214;137582;-63
2023/07/01 21:54:34;;;;;;;17.10;12.40;;;;;;;22.10;70.86;98007.59;223577;181;146342;-63
2023/07/01 21:59:37;;;;;;;79.40;70.70;;;;;;;22.19;70.86;98005.36;223493;181;138458;-63
2023/07/01 22:04:40;;;;;;;14.00;12.00;;;;;;;22.26;70.93;98003.65;223533;181;138479;-66
2023/07/01 22:09:43;;;;;;;14.10;11.90;;;;;;;22.27;70.99;97998.47;223590;180;147063;-66
2023/07/01 22:14:47;;;;;;;16.10;13.30;;;;;;;22.35;70.85;97996.25;223705;181;138387;-67
2023/07/01 22:19:50;;;;;;;15.30;13.20;;;;;;;22.40;70.74;97994.71;223850;181;137594;-66
2023/07/01 22:24:57;;;;;;;16.00;14.20;;;;;;;22.41;70.81;98007.44;223677;181;145676;-67
2023/07/01 22:30:00;;;;;;;16.70;12.60;;;;;;;22.38;70.70;98009.27;223753;181;138322;-66
2023/07/01 22:35:04;;;;;;;15.30;11.70;;;;;;;22.34;70.75;98020.65;223543;181;137681;-66
2023/07/01 22:40:08;;;;;;;14.10;10.80;;;;;;;22.32;71.13;98017.09;223758;181;145859;-67
2023/07/01 22:45:11;;;;;;;14.30;10.60;;;;;;;22.24;70.81;98008.95;223599;181;138238;-64
2023/07/01 22:50:17;;;;;;;13.00;10.30;;;;;;;22.10;70.93;98007.02;223870;181;137039;-66
2023/07/01 22:55:20;;;;;;;14.20;10.80;;;;;;;21.94;71.65;98004.66;223858;181;145471;-66
2023/07/01 23:00:24;;;;;;;15.70;9.90;;;;;;;21.84;71.64;98004.24;223693;181;138935;-67
2023/07/01 23:05:27;;;;;;;13.40;10.70;;;;;;;21.76;72.18;98004.49;223858;180;137522;-66
2023/07/01 23:13:19;;;;;;;13.50;9.90;;;;;;;21.73;72.25;98002.73;221782;193;677627;-66
2023/07/01 23:18:22;;;;;;;12.10;9.90;;;;;;;21.71;72.58;98006.86;223337;184;137238;-66
2023/07/01 23:23:26;;;;;;;12.60;10.20;;;;;;;21.66;72.55;98004.10;223471;184;146576;-63
2023/07/01 23:28:31;;;;;;;10.90;9.10;;;;;;;21.62;73.18;98000.26;223319;184;140973;-66
2023/07/01 23:33:34;;;;;;;;;;;;;;;21.55;73.64;97998.56;223583;184;137462;-65
2023/07/01 23:38:37;;;;;;;14.00;10.40;;;;;;;21.51;73.75;98000.95;223800;183;144033;-66
2023/07/01 23:43:40;;;;;;;13.60;10.00;;;;;;;21.52;73.23;97997.59;223528;183;139733;-66
2023/07/01 23:48:43;;;;;;;14.70;10.40;;;;;;;21.56;72.92;97999.15;223616;182;138507;-66
2023/07/01 23:53:46;;;;;;;12.20;10.00;;;;;;;21.60;72.87;98003.23;223654;183;143734;-65